sensor_id;sensor_type;location;lat;lon;timestamp;P1;durP1;ratioP1;P2;durP2;ratioP2
69837;SDS011;57135;51.992;4.476;2023-06-22T00:01:49;25.79;;;24.99;;
69837;SDS011;57135;51.992;4.476;2023-06-22T00:04:15;26.00;;;25.16;;
69837;SDS011;57135;51.992;4.476;2023-06-22T00:06:41;26.65;;;25.89;;
69837;SDS011;57135;51.992;4.476;2023-06-22T00:09:06;26.86;;;26.13;;
69837;SDS011;57135;51.992;4.476;2023-06-22T00:11:35;27.36;;;26.54;;
69837;SDS011;57135;51.992;4.476;2023-06-22T00:14:02;27.04;;;26.08;;
69837;SDS011;57135;51.992;4.476;2023-06-22T00:16:27;26.90;;;25.89;;
69837;SDS011;57135;51.992;4.476;2023-06-22T00:18:53;27.60;;;26.57;;
69837;SDS011;57135;51.992;4.476;2023-06-22T00:21:18;28.53;;;27.74;;
69837;SDS011;57135;51.992;4.476;2023-06-22T00:23:45;28.12;;;27.33;;
69837;SDS011;57135;51.992;4.476;2023-06-22T00:26:11;28.23;;;27.35;;
69837;SDS011;57135;51.992;4.476;2023-06-22T00:28:36;28.28;;;27.25;;
69837;SDS011;57135;51.992;4.476;2023-06-22T00:31:02;27.73;;;26.72;;
69837;SDS011;57135;51.992;4.476;2023-06-22T00:33:27;27.27;;;26.53;;
69837;SDS011;57135;51.992;4.476;2023-06-22T00:35:53;28.79;;;27.65;;
69837;SDS011;57135;51.992;4.476;2023-06-22T00:38:19;28.46;;;27.37;;
69837;SDS011;57135;51.992;4.476;2023-06-22T00:40:45;28.37;;;27.51;;
69837;SDS011;57135;51.992;4.476;2023-06-22T00:43:10;29.82;;;28.62;;
69837;SDS011;57135;51.992;4.476;2023-06-22T00:45:36;31.27;;;30.14;;
69837;SDS011;57135;51.992;4.476;2023-06-22T00:48:02;30.79;;;29.39;;
69837;SDS011;57135;51.992;4.476;2023-06-22T00:50:30;31.05;;;29.63;;
69837;SDS011;57135;51.992;4.476;2023-06-22T00:53:04;31.04;;;29.88;;
69837;SDS011;57135;51.992;4.476;2023-06-22T00:55:38;29.43;;;28.54;;
69837;SDS011;57135;51.992;4.476;2023-06-22T00:58:16;30.00;;;28.76;;
69837;SDS011;57135;51.992;4.476;2023-06-22T01:00:42;31.38;;;30.01;;
69837;SDS011;57135;51.992;4.476;2023-06-22T01:03:08;31.17;;;29.98;;
69837;SDS011;57135;51.992;4.476;2023-06-22T01:05:34;30.65;;;29.51;;
69837;SDS011;57135;51.992;4.476;2023-06-22T01:10:38;31.24;;;30.13;;
69837;SDS011;57135;51.992;4.476;2023-06-22T01:14:12;31.53;;;30.37;;
69837;SDS011;57135;51.992;4.476;2023-06-22T01:16:15;32.01;;;30.88;;
69837;SDS011;57135;51.992;4.476;2023-06-22T01:18:50;32.54;;;31.13;;
69837;SDS011;57135;51.992;4.476;2023-06-22T01:21:19;32.94;;;31.49;;
69837;SDS011;57135;51.992;4.476;2023-06-22T01:26:37;32.40;;;31.31;;
69837;SDS011;57135;51.992;4.476;2023-06-22T01:29:08;31.09;;;29.88;;
69837;SDS011;57135;51.992;4.476;2023-06-22T01:31:37;30.94;;;30.03;;
69837;SDS011;57135;51.992;4.476;2023-06-22T01:34:05;30.83;;;29.69;;
69837;SDS011;57135;51.992;4.476;2023-06-22T01:36:33;30.68;;;29.45;;
69837;SDS011;57135;51.992;4.476;2023-06-22T01:38:59;29.78;;;28.78;;
69837;SDS011;57135;51.992;4.476;2023-06-22T01:41:28;29.82;;;29.15;;
69837;SDS011;57135;51.992;4.476;2023-06-22T01:43:55;30.43;;;29.35;;
69837;SDS011;57135;51.992;4.476;2023-06-22T01:46:22;29.18;;;28.15;;
69837;SDS011;57135;51.992;4.476;2023-06-22T01:48:48;29.69;;;28.44;;
69837;SDS011;57135;51.992;4.476;2023-06-22T01:51:14;29.54;;;28.58;;
69837;SDS011;57135;51.992;4.476;2023-06-22T01:53:40;28.73;;;28.06;;
69837;SDS011;57135;51.992;4.476;2023-06-22T01:56:06;30.16;;;29.17;;
69837;SDS011;57135;51.992;4.476;2023-06-22T01:58:31;31.66;;;30.16;;
69837;SDS011;57135;51.992;4.476;2023-06-22T02:03:31;31.16;;;30.16;;
69837;SDS011;57135;51.992;4.476;2023-06-22T02:06:03;30.65;;;29.71;;
69837;SDS011;57135;51.992;4.476;2023-06-22T02:08:41;32.99;;;31.85;;
69837;SDS011;57135;51.992;4.476;2023-06-22T02:11:14;33.67;;;32.41;;
69837;SDS011;57135;51.992;4.476;2023-06-22T02:13:44;33.61;;;32.01;;
69837;SDS011;57135;51.992;4.476;2023-06-22T02:16:11;32.11;;;30.67;;
69837;SDS011;57135;51.992;4.476;2023-06-22T02:18:38;32.28;;;31.07;;
69837;SDS011;57135;51.992;4.476;2023-06-22T02:21:05;31.98;;;30.73;;
69837;SDS011;57135;51.992;4.476;2023-06-22T02:23:31;32.48;;;31.69;;
69837;SDS011;57135;51.992;4.476;2023-06-22T02:25:59;32.50;;;31.41;;
69837;SDS011;57135;51.992;4.476;2023-06-22T02:28:27;33.16;;;32.03;;
69837;SDS011;57135;51.992;4.476;2023-06-22T02:30:52;35.29;;;33.95;;
69837;SDS011;57135;51.992;4.476;2023-06-22T02:33:18;35.50;;;33.85;;
69837;SDS011;57135;51.992;4.476;2023-06-22T02:35:44;33.04;;;31.68;;
69837;SDS011;57135;51.992;4.476;2023-06-22T02:38:13;33.57;;;32.22;;
69837;SDS011;57135;51.992;4.476;2023-06-22T02:40:39;34.57;;;33.00;;
69837;SDS011;57135;51.992;4.476;2023-06-22T02:43:05;36.19;;;34.58;;
69837;SDS011;57135;51.992;4.476;2023-06-22T02:45:30;36.74;;;34.93;;
69837;SDS011;57135;51.992;4.476;2023-06-22T02:47:56;37.65;;;35.89;;
69837;SDS011;57135;51.992;4.476;2023-06-22T02:50:21;38.73;;;37.06;;
69837;SDS011;57135;51.992;4.476;2023-06-22T02:52:47;36.75;;;35.20;;
69837;SDS011;57135;51.992;4.476;2023-06-22T02:55:12;39.25;;;37.34;;
69837;SDS011;57135;51.992;4.476;2023-06-22T02:57:38;38.58;;;37.18;;
69837;SDS011;57135;51.992;4.476;2023-06-22T03:00:09;39.49;;;37.54;;
69837;SDS011;57135;51.992;4.476;2023-06-22T03:02:43;39.62;;;37.86;;
69837;SDS011;57135;51.992;4.476;2023-06-22T03:05:10;39.45;;;37.55;;
69837;SDS011;57135;51.992;4.476;2023-06-22T03:07:39;38.26;;;36.70;;
69837;SDS011;57135;51.992;4.476;2023-06-22T03:10:06;38.74;;;37.25;;
69837;SDS011;57135;51.992;4.476;2023-06-22T03:12:32;37.89;;;36.14;;
69837;SDS011;57135;51.992;4.476;2023-06-22T03:14:58;36.57;;;35.29;;
69837;SDS011;57135;51.992;4.476;2023-06-22T03:17:23;38.40;;;36.48;;
69837;SDS011;57135;51.992;4.476;2023-06-22T03:19:49;35.43;;;33.73;;
69837;SDS011;57135;51.992;4.476;2023-06-22T03:22:14;37.30;;;35.58;;
69837;SDS011;57135;51.992;4.476;2023-06-22T03:24:40;37.27;;;35.55;;
69837;SDS011;57135;51.992;4.476;2023-06-22T03:27:05;36.83;;;35.25;;
69837;SDS011;57135;51.992;4.476;2023-06-22T03:29:31;36.44;;;34.82;;
69837;SDS011;57135;51.992;4.476;2023-06-22T03:31:56;36.90;;;35.29;;
69837;SDS011;57135;51.992;4.476;2023-06-22T03:34:22;36.91;;;35.49;;
69837;SDS011;57135;51.992;4.476;2023-06-22T03:36:47;40.25;;;38.18;;
69837;SDS011;57135;51.992;4.476;2023-06-22T03:39:13;41.16;;;39.16;;
69837;SDS011;57135;51.992;4.476;2023-06-22T03:41:38;41.23;;;38.92;;
69837;SDS011;57135;51.992;4.476;2023-06-22T03:44:04;39.64;;;37.74;;
69837;SDS011;57135;51.992;4.476;2023-06-22T03:46:29;39.25;;;37.64;;
69837;SDS011;57135;51.992;4.476;2023-06-22T03:48:55;39.98;;;38.02;;
69837;SDS011;57135;51.992;4.476;2023-06-22T03:51:20;39.70;;;37.69;;
69837;SDS011;57135;51.992;4.476;2023-06-22T03:53:46;40.07;;;38.17;;
69837;SDS011;57135;51.992;4.476;2023-06-22T03:56:13;40.55;;;38.75;;
69837;SDS011;57135;51.992;4.476;2023-06-22T03:58:45;39.55;;;37.84;;
69837;SDS011;57135;51.992;4.476;2023-06-22T04:01:10;40.55;;;38.79;;
69837;SDS011;57135;51.992;4.476;2023-06-22T04:03:38;40.78;;;39.09;;
69837;SDS011;57135;51.992;4.476;2023-06-22T04:06:04;41.58;;;39.72;;
69837;SDS011;57135;51.992;4.476;2023-06-22T04:08:29;41.62;;;39.50;;
69837;SDS011;57135;51.992;4.476;2023-06-22T04:10:55;40.27;;;38.27;;
69837;SDS011;57135;51.992;4.476;2023-06-22T04:13:21;41.30;;;39.14;;
69837;SDS011;57135;51.992;4.476;2023-06-22T04:15:46;41.57;;;39.52;;
69837;SDS011;57135;51.992;4.476;2023-06-22T04:18:12;39.06;;;37.94;;
69837;SDS011;57135;51.992;4.476;2023-06-22T04:20:38;40.11;;;38.55;;
69837;SDS011;57135;51.992;4.476;2023-06-22T04:23:04;38.62;;;37.38;;
69837;SDS011;57135;51.992;4.476;2023-06-22T04:25:29;40.83;;;39.29;;
69837;SDS011;57135;51.992;4.476;2023-06-22T04:27:55;41.18;;;39.60;;
69837;SDS011;57135;51.992;4.476;2023-06-22T04:30:20;41.47;;;39.94;;
69837;SDS011;57135;51.992;4.476;2023-06-22T04:32:46;40.79;;;39.08;;
69837;SDS011;57135;51.992;4.476;2023-06-22T04:35:21;40.89;;;39.04;;
69837;SDS011;57135;51.992;4.476;2023-06-22T04:37:47;40.78;;;38.52;;
69837;SDS011;57135;51.992;4.476;2023-06-22T04:40:14;40.86;;;39.25;;
69837;SDS011;57135;51.992;4.476;2023-06-22T04:42:40;40.69;;;38.84;;
69837;SDS011;57135;51.992;4.476;2023-06-22T04:45:17;40.60;;;38.98;;
69837;SDS011;57135;51.992;4.476;2023-06-22T04:47:43;40.02;;;38.57;;
69837;SDS011;57135;51.992;4.476;2023-06-22T04:50:11;39.45;;;37.92;;
69837;SDS011;57135;51.992;4.476;2023-06-22T04:52:36;39.67;;;38.29;;
69837;SDS011;57135;51.992;4.476;2023-06-22T04:55:02;39.19;;;37.91;;
69837;SDS011;57135;51.992;4.476;2023-06-22T04:57:28;38.14;;;36.73;;
69837;SDS011;57135;51.992;4.476;2023-06-22T05:00:00;38.48;;;37.11;;
69837;SDS011;57135;51.992;4.476;2023-06-22T05:02:38;37.14;;;35.81;;
69837;SDS011;57135;51.992;4.476;2023-06-22T05:05:04;36.77;;;35.32;;
69837;SDS011;57135;51.992;4.476;2023-06-22T05:07:34;36.39;;;34.98;;
69837;SDS011;57135;51.992;4.476;2023-06-22T05:10:01;35.86;;;34.70;;
69837;SDS011;57135;51.992;4.476;2023-06-22T05:12:27;35.25;;;34.11;;
69837;SDS011;57135;51.992;4.476;2023-06-22T05:14:54;35.50;;;34.27;;
69837;SDS011;57135;51.992;4.476;2023-06-22T05:17:19;36.29;;;34.96;;
69837;SDS011;57135;51.992;4.476;2023-06-22T05:19:45;34.88;;;34.06;;
69837;SDS011;57135;51.992;4.476;2023-06-22T05:22:16;34.46;;;33.43;;
69837;SDS011;57135;51.992;4.476;2023-06-22T05:24:42;34.70;;;33.57;;
69837;SDS011;57135;51.992;4.476;2023-06-22T05:27:08;33.46;;;32.45;;
69837;SDS011;57135;51.992;4.476;2023-06-22T05:29:34;31.52;;;30.71;;
69837;SDS011;57135;51.992;4.476;2023-06-22T05:32:00;30.83;;;30.11;;
69837;SDS011;57135;51.992;4.476;2023-06-22T05:34:26;30.74;;;29.92;;
69837;SDS011;57135;51.992;4.476;2023-06-22T05:36:51;29.53;;;28.84;;
69837;SDS011;57135;51.992;4.476;2023-06-22T05:39:17;29.02;;;28.40;;
69837;SDS011;57135;51.992;4.476;2023-06-22T05:41:42;28.81;;;28.27;;
69837;SDS011;57135;51.992;4.476;2023-06-22T05:44:11;27.74;;;26.96;;
69837;SDS011;57135;51.992;4.476;2023-06-22T05:46:39;27.16;;;26.41;;
69837;SDS011;57135;51.992;4.476;2023-06-22T05:49:05;27.74;;;27.08;;
69837;SDS011;57135;51.992;4.476;2023-06-22T05:51:31;28.08;;;27.32;;
69837;SDS011;57135;51.992;4.476;2023-06-22T05:53:56;27.96;;;27.21;;
69837;SDS011;57135;51.992;4.476;2023-06-22T05:56:22;26.92;;;26.37;;
69837;SDS011;57135;51.992;4.476;2023-06-22T05:58:47;26.79;;;26.35;;
69837;SDS011;57135;51.992;4.476;2023-06-22T06:01:13;26.80;;;26.19;;
69837;SDS011;57135;51.992;4.476;2023-06-22T06:03:40;26.48;;;25.97;;
69837;SDS011;57135;51.992;4.476;2023-06-22T06:06:09;26.92;;;26.15;;
69837;SDS011;57135;51.992;4.476;2023-06-22T06:08:36;26.65;;;25.92;;
69837;SDS011;57135;51.992;4.476;2023-06-22T06:11:02;27.31;;;26.84;;
69837;SDS011;57135;51.992;4.476;2023-06-22T06:13:27;27.25;;;26.67;;
69837;SDS011;57135;51.992;4.476;2023-06-22T06:15:53;27.13;;;26.50;;
69837;SDS011;57135;51.992;4.476;2023-06-22T06:18:20;28.35;;;27.69;;
69837;SDS011;57135;51.992;4.476;2023-06-22T06:20:46;27.37;;;26.79;;
69837;SDS011;57135;51.992;4.476;2023-06-22T06:23:11;26.84;;;26.45;;
69837;SDS011;57135;51.992;4.476;2023-06-22T06:25:37;27.32;;;26.65;;
69837;SDS011;57135;51.992;4.476;2023-06-22T06:28:02;26.84;;;26.23;;
69837;SDS011;57135;51.992;4.476;2023-06-22T06:30:28;26.70;;;26.14;;
69837;SDS011;57135;51.992;4.476;2023-06-22T06:32:54;26.89;;;26.23;;
69837;SDS011;57135;51.992;4.476;2023-06-22T06:35:19;26.79;;;26.04;;
69837;SDS011;57135;51.992;4.476;2023-06-22T06:37:45;26.30;;;25.71;;
69837;SDS011;57135;51.992;4.476;2023-06-22T06:40:13;26.82;;;26.25;;
69837;SDS011;57135;51.992;4.476;2023-06-22T06:42:41;26.37;;;25.97;;
69837;SDS011;57135;51.992;4.476;2023-06-22T06:45:10;26.58;;;26.12;;
69837;SDS011;57135;51.992;4.476;2023-06-22T06:47:41;25.46;;;25.02;;
69837;SDS011;57135;51.992;4.476;2023-06-22T06:50:07;25.28;;;24.59;;
69837;SDS011;57135;51.992;4.476;2023-06-22T06:52:33;25.20;;;24.63;;
69837;SDS011;57135;51.992;4.476;2023-06-22T06:54:59;24.44;;;23.90;;
69837;SDS011;57135;51.992;4.476;2023-06-22T06:57:25;22.81;;;22.46;;
69837;SDS011;57135;51.992;4.476;2023-06-22T06:59:56;22.33;;;22.04;;
69837;SDS011;57135;51.992;4.476;2023-06-22T07:02:22;21.63;;;21.34;;
69837;SDS011;57135;51.992;4.476;2023-06-22T07:04:48;21.02;;;20.68;;
69837;SDS011;57135;51.992;4.476;2023-06-22T07:07:14;20.37;;;20.20;;
69837;SDS011;57135;51.992;4.476;2023-06-22T07:09:40;20.71;;;20.21;;
69837;SDS011;57135;51.992;4.476;2023-06-22T07:12:05;20.24;;;19.86;;
69837;SDS011;57135;51.992;4.476;2023-06-22T07:14:31;21.66;;;21.26;;
69837;SDS011;57135;51.992;4.476;2023-06-22T07:16:57;37.18;;;36.36;;
69837;SDS011;57135;51.992;4.476;2023-06-22T07:19:26;20.79;;;20.23;;
69837;SDS011;57135;51.992;4.476;2023-06-22T07:21:53;19.24;;;18.97;;
69837;SDS011;57135;51.992;4.476;2023-06-22T07:24:21;18.13;;;17.87;;
69837;SDS011;57135;51.992;4.476;2023-06-22T07:26:50;17.85;;;17.51;;
69837;SDS011;57135;51.992;4.476;2023-06-22T07:29:17;16.61;;;16.45;;
69837;SDS011;57135;51.992;4.476;2023-06-22T07:31:42;16.17;;;15.77;;
69837;SDS011;57135;51.992;4.476;2023-06-22T07:34:08;15.81;;;15.53;;
69837;SDS011;57135;51.992;4.476;2023-06-22T07:36:34;15.60;;;15.32;;
69837;SDS011;57135;51.992;4.476;2023-06-22T07:39:01;14.86;;;14.63;;
69837;SDS011;57135;51.992;4.476;2023-06-22T07:41:28;14.31;;;13.98;;
69837;SDS011;57135;51.992;4.476;2023-06-22T07:43:53;12.35;;;12.20;;
69837;SDS011;57135;51.992;4.476;2023-06-22T07:46:19;10.97;;;10.92;;
69837;SDS011;57135;51.992;4.476;2023-06-22T07:48:44;10.69;;;10.57;;
69837;SDS011;57135;51.992;4.476;2023-06-22T07:51:10;11.34;;;11.22;;
69837;SDS011;57135;51.992;4.476;2023-06-22T07:53:39;11.55;;;11.50;;
69837;SDS011;57135;51.992;4.476;2023-06-22T07:56:06;11.36;;;11.27;;
69837;SDS011;57135;51.992;4.476;2023-06-22T07:58:32;11.57;;;11.51;;
69837;SDS011;57135;51.992;4.476;2023-06-22T08:00:58;10.08;;;9.95;;
69837;SDS011;57135;51.992;4.476;2023-06-22T08:03:23;8.47;;;8.47;;
69837;SDS011;57135;51.992;4.476;2023-06-22T08:05:49;8.94;;;8.93;;
69837;SDS011;57135;51.992;4.476;2023-06-22T08:08:15;8.84;;;8.70;;
69837;SDS011;57135;51.992;4.476;2023-06-22T08:10:40;9.00;;;8.87;;
69837;SDS011;57135;51.992;4.476;2023-06-22T08:13:07;8.16;;;8.02;;
69837;SDS011;57135;51.992;4.476;2023-06-22T08:15:33;7.99;;;7.79;;
69837;SDS011;57135;51.992;4.476;2023-06-22T08:17:59;8.13;;;7.95;;
69837;SDS011;57135;51.992;4.476;2023-06-22T08:20:25;8.47;;;8.28;;
69837;SDS011;57135;51.992;4.476;2023-06-22T08:22:51;7.96;;;7.86;;
69837;SDS011;57135;51.992;4.476;2023-06-22T08:25:18;8.87;;;8.73;;
69837;SDS011;57135;51.992;4.476;2023-06-22T08:27:44;9.37;;;9.29;;
69837;SDS011;57135;51.992;4.476;2023-06-22T08:30:11;8.47;;;8.39;;
69837;SDS011;57135;51.992;4.476;2023-06-22T08:32:37;8.04;;;7.97;;
69837;SDS011;57135;51.992;4.476;2023-06-22T08:35:02;7.16;;;6.99;;
69837;SDS011;57135;51.992;4.476;2023-06-22T08:37:28;6.51;;;6.32;;
69837;SDS011;57135;51.992;4.476;2023-06-22T08:40:00;6.32;;;6.23;;
69837;SDS011;57135;51.992;4.476;2023-06-22T08:42:29;6.99;;;6.91;;
69837;SDS011;57135;51.992;4.476;2023-06-22T08:44:55;7.46;;;7.38;;
69837;SDS011;57135;51.992;4.476;2023-06-22T08:47:20;7.89;;;7.71;;
69837;SDS011;57135;51.992;4.476;2023-06-22T08:49:46;7.11;;;7.06;;
69837;SDS011;57135;51.992;4.476;2023-06-22T08:52:12;7.37;;;7.35;;
69837;SDS011;57135;51.992;4.476;2023-06-22T08:54:38;7.69;;;7.63;;
69837;SDS011;57135;51.992;4.476;2023-06-22T08:57:04;10.77;;;10.61;;
69837;SDS011;57135;51.992;4.476;2023-06-22T08:59:29;12.58;;;12.26;;
69837;SDS011;57135;51.992;4.476;2023-06-22T09:01:55;9.32;;;9.05;;
69837;SDS011;57135;51.992;4.476;2023-06-22T09:04:21;8.35;;;8.26;;
69837;SDS011;57135;51.992;4.476;2023-06-22T09:06:47;7.85;;;7.84;;
69837;SDS011;57135;51.992;4.476;2023-06-22T09:09:13;9.88;;;9.87;;
69837;SDS011;57135;51.992;4.476;2023-06-22T09:11:40;11.09;;;11.05;;
69837;SDS011;57135;51.992;4.476;2023-06-22T09:14:06;8.89;;;8.89;;
69837;SDS011;57135;51.992;4.476;2023-06-22T09:16:33;10.74;;;10.69;;
69837;SDS011;57135;51.992;4.476;2023-06-22T09:18:59;10.46;;;10.46;;
69837;SDS011;57135;51.992;4.476;2023-06-22T09:21:24;26.55;;;26.41;;
69837;SDS011;57135;51.992;4.476;2023-06-22T09:23:49;12.69;;;12.67;;
69837;SDS011;57135;51.992;4.476;2023-06-22T09:26:19;10.94;;;10.93;;
69837;SDS011;57135;51.992;4.476;2023-06-22T09:28:45;11.71;;;11.69;;
69837;SDS011;57135;51.992;4.476;2023-06-22T09:31:11;12.39;;;12.18;;
69837;SDS011;57135;51.992;4.476;2023-06-22T09:33:36;11.57;;;11.44;;
69837;SDS011;57135;51.992;4.476;2023-06-22T09:36:05;10.43;;;10.36;;
69837;SDS011;57135;51.992;4.476;2023-06-22T09:38:34;11.02;;;10.98;;
69837;SDS011;57135;51.992;4.476;2023-06-22T09:41:01;8.99;;;8.99;;
69837;SDS011;57135;51.992;4.476;2023-06-22T09:43:27;9.50;;;9.50;;
69837;SDS011;57135;51.992;4.476;2023-06-22T09:45:53;9.57;;;9.55;;
69837;SDS011;57135;51.992;4.476;2023-06-22T09:48:18;10.48;;;10.45;;
69837;SDS011;57135;51.992;4.476;2023-06-22T09:50:44;9.30;;;9.30;;
69837;SDS011;57135;51.992;4.476;2023-06-22T09:53:10;10.52;;;10.52;;
69837;SDS011;57135;51.992;4.476;2023-06-22T09:55:35;10.08;;;10.08;;
69837;SDS011;57135;51.992;4.476;2023-06-22T09:58:00;8.89;;;8.87;;
69837;SDS011;57135;51.992;4.476;2023-06-22T10:00:26;10.21;;;10.20;;
69837;SDS011;57135;51.992;4.476;2023-06-22T10:02:53;11.88;;;11.82;;
69837;SDS011;57135;51.992;4.476;2023-06-22T10:05:19;12.53;;;12.45;;
69837;SDS011;57135;51.992;4.476;2023-06-22T10:07:44;13.35;;;13.35;;
69837;SDS011;57135;51.992;4.476;2023-06-22T10:10:10;12.41;;;12.41;;
69837;SDS011;57135;51.992;4.476;2023-06-22T10:12:41;10.58;;;10.57;;
69837;SDS011;57135;51.992;4.476;2023-06-22T10:15:09;12.54;;;12.54;;
69837;SDS011;57135;51.992;4.476;2023-06-22T10:17:35;12.09;;;12.07;;
69837;SDS011;57135;51.992;4.476;2023-06-22T10:20:00;11.64;;;11.63;;
69837;SDS011;57135;51.992;4.476;2023-06-22T10:22:36;12.57;;;12.57;;
69837;SDS011;57135;51.992;4.476;2023-06-22T10:25:02;12.75;;;12.75;;
69837;SDS011;57135;51.992;4.476;2023-06-22T10:27:28;12.38;;;12.38;;
69837;SDS011;57135;51.992;4.476;2023-06-22T10:29:53;13.38;;;13.33;;
69837;SDS011;57135;51.992;4.476;2023-06-22T10:32:19;13.54;;;13.49;;
69837;SDS011;57135;51.992;4.476;2023-06-22T10:34:45;13.39;;;13.36;;
69837;SDS011;57135;51.992;4.476;2023-06-22T10:37:10;13.50;;;13.49;;
69837;SDS011;57135;51.992;4.476;2023-06-22T10:39:36;14.04;;;14.04;;
69837;SDS011;57135;51.992;4.476;2023-06-22T10:42:01;16.67;;;16.59;;
69837;SDS011;57135;51.992;4.476;2023-06-22T10:44:27;15.10;;;15.10;;
69837;SDS011;57135;51.992;4.476;2023-06-22T10:46:52;14.65;;;14.65;;
69837;SDS011;57135;51.992;4.476;2023-06-22T10:49:18;15.83;;;15.83;;
69837;SDS011;57135;51.992;4.476;2023-06-22T10:51:43;17.54;;;17.54;;
69837;SDS011;57135;51.992;4.476;2023-06-22T10:54:09;15.66;;;15.66;;
69837;SDS011;57135;51.992;4.476;2023-06-22T10:56:34;11.79;;;11.79;;
69837;SDS011;57135;51.992;4.476;2023-06-22T10:59:00;11.81;;;11.81;;
69837;SDS011;57135;51.992;4.476;2023-06-22T11:01:26;11.00;;;10.96;;
69837;SDS011;57135;51.992;4.476;2023-06-22T11:03:53;9.67;;;9.67;;
69837;SDS011;57135;51.992;4.476;2023-06-22T11:06:18;8.54;;;8.54;;
69837;SDS011;57135;51.992;4.476;2023-06-22T11:08:44;10.06;;;10.06;;
69837;SDS011;57135;51.992;4.476;2023-06-22T11:11:10;12.06;;;12.06;;
69837;SDS011;57135;51.992;4.476;2023-06-22T11:13:36;12.85;;;12.85;;
69837;SDS011;57135;51.992;4.476;2023-06-22T11:16:01;15.43;;;15.43;;
69837;SDS011;57135;51.992;4.476;2023-06-22T11:18:27;14.31;;;14.31;;
69837;SDS011;57135;51.992;4.476;2023-06-22T11:20:52;14.09;;;14.09;;
69837;SDS011;57135;51.992;4.476;2023-06-22T11:23:18;14.98;;;14.98;;
69837;SDS011;57135;51.992;4.476;2023-06-22T11:25:44;13.78;;;13.78;;
69837;SDS011;57135;51.992;4.476;2023-06-22T11:28:09;11.92;;;11.92;;
69837;SDS011;57135;51.992;4.476;2023-06-22T11:30:35;11.62;;;11.62;;
69837;SDS011;57135;51.992;4.476;2023-06-22T11:33:00;12.78;;;12.78;;
69837;SDS011;57135;51.992;4.476;2023-06-22T11:35:26;14.28;;;14.27;;
69837;SDS011;57135;51.992;4.476;2023-06-22T11:37:51;14.72;;;14.72;;
69837;SDS011;57135;51.992;4.476;2023-06-22T11:40:17;13.56;;;13.56;;
69837;SDS011;57135;51.992;4.476;2023-06-22T11:42:43;11.10;;;11.10;;
69837;SDS011;57135;51.992;4.476;2023-06-22T11:45:08;12.50;;;12.26;;
69837;SDS011;57135;51.992;4.476;2023-06-22T11:47:34;11.95;;;11.90;;
69837;SDS011;57135;51.992;4.476;2023-06-22T11:50:01;12.44;;;12.43;;
69837;SDS011;57135;51.992;4.476;2023-06-22T11:52:27;14.41;;;14.41;;
69837;SDS011;57135;51.992;4.476;2023-06-22T11:54:53;14.04;;;14.04;;
69837;SDS011;57135;51.992;4.476;2023-06-22T11:57:18;16.44;;;16.40;;
69837;SDS011;57135;51.992;4.476;2023-06-22T11:59:44;16.49;;;16.45;;
69837;SDS011;57135;51.992;4.476;2023-06-22T12:02:09;17.26;;;17.24;;
69837;SDS011;57135;51.992;4.476;2023-06-22T12:04:35;17.73;;;17.73;;
69837;SDS011;57135;51.992;4.476;2023-06-22T12:07:00;17.80;;;17.79;;
69837;SDS011;57135;51.992;4.476;2023-06-22T12:09:26;17.88;;;17.84;;
69837;SDS011;57135;51.992;4.476;2023-06-22T12:11:51;17.91;;;17.87;;
69837;SDS011;57135;51.992;4.476;2023-06-22T12:14:17;20.29;;;20.29;;
69837;SDS011;57135;51.992;4.476;2023-06-22T12:16:42;23.30;;;23.28;;
69837;SDS011;57135;51.992;4.476;2023-06-22T12:19:09;21.13;;;21.13;;
69837;SDS011;57135;51.992;4.476;2023-06-22T12:21:36;18.37;;;18.37;;
69837;SDS011;57135;51.992;4.476;2023-06-22T12:24:02;17.56;;;17.54;;
69837;SDS011;57135;51.992;4.476;2023-06-22T12:26:28;16.25;;;16.18;;
69837;SDS011;57135;51.992;4.476;2023-06-22T12:28:53;16.85;;;16.85;;
69837;SDS011;57135;51.992;4.476;2023-06-22T12:31:19;18.65;;;18.64;;
69837;SDS011;57135;51.992;4.476;2023-06-22T12:33:44;22.42;;;22.41;;
69837;SDS011;57135;51.992;4.476;2023-06-22T12:36:10;23.84;;;23.80;;
69837;SDS011;57135;51.992;4.476;2023-06-22T12:38:35;24.90;;;24.87;;
69837;SDS011;57135;51.992;4.476;2023-06-22T12:41:01;25.09;;;24.82;;
69837;SDS011;57135;51.992;4.476;2023-06-22T12:43:26;24.55;;;24.55;;
69837;SDS011;57135;51.992;4.476;2023-06-22T12:45:52;24.38;;;24.36;;
69837;SDS011;57135;51.992;4.476;2023-06-22T12:48:18;23.63;;;23.54;;
69837;SDS011;57135;51.992;4.476;2023-06-22T12:50:44;24.49;;;24.46;;
69837;SDS011;57135;51.992;4.476;2023-06-22T12:53:09;24.40;;;24.36;;
69837;SDS011;57135;51.992;4.476;2023-06-22T12:55:35;23.61;;;23.51;;
69837;SDS011;57135;51.992;4.476;2023-06-22T12:58:00;23.93;;;23.91;;
69837;SDS011;57135;51.992;4.476;2023-06-22T13:00:26;23.57;;;23.55;;
69837;SDS011;57135;51.992;4.476;2023-06-22T13:02:51;23.16;;;23.12;;
69837;SDS011;57135;51.992;4.476;2023-06-22T13:05:17;23.71;;;23.68;;
69837;SDS011;57135;51.992;4.476;2023-06-22T13:07:42;24.36;;;24.20;;
69837;SDS011;57135;51.992;4.476;2023-06-22T13:10:08;23.78;;;23.76;;
69837;SDS011;57135;51.992;4.476;2023-06-22T13:12:33;24.49;;;24.49;;
69837;SDS011;57135;51.992;4.476;2023-06-22T13:14:59;24.68;;;24.68;;
69837;SDS011;57135;51.992;4.476;2023-06-22T13:17:24;26.11;;;26.10;;
69837;SDS011;57135;51.992;4.476;2023-06-22T13:19:50;28.04;;;27.99;;
69837;SDS011;57135;51.992;4.476;2023-06-22T13:25:10;27.59;;;27.50;;
69837;SDS011;57135;51.992;4.476;2023-06-22T13:27:40;27.99;;;27.96;;
69837;SDS011;57135;51.992;4.476;2023-06-22T13:30:06;27.60;;;27.46;;
69837;SDS011;57135;51.992;4.476;2023-06-22T13:32:32;27.19;;;27.19;;
69837;SDS011;57135;51.992;4.476;2023-06-22T13:34:58;26.84;;;26.83;;
69837;SDS011;57135;51.992;4.476;2023-06-22T13:37:23;28.90;;;28.89;;
69837;SDS011;57135;51.992;4.476;2023-06-22T13:39:49;27.65;;;27.63;;
69837;SDS011;57135;51.992;4.476;2023-06-22T13:42:14;26.81;;;26.56;;
69837;SDS011;57135;51.992;4.476;2023-06-22T13:44:40;25.87;;;25.79;;
69837;SDS011;57135;51.992;4.476;2023-06-22T13:47:05;24.81;;;24.73;;
69837;SDS011;57135;51.992;4.476;2023-06-22T13:49:31;25.39;;;25.31;;
69837;SDS011;57135;51.992;4.476;2023-06-22T13:51:57;24.39;;;24.22;;
69837;SDS011;57135;51.992;4.476;2023-06-22T13:54:22;26.19;;;26.18;;
69837;SDS011;57135;51.992;4.476;2023-06-22T13:56:48;24.32;;;24.32;;
69837;SDS011;57135;51.992;4.476;2023-06-22T13:59:13;25.29;;;25.29;;
69837;SDS011;57135;51.992;4.476;2023-06-22T14:01:39;26.16;;;26.12;;
69837;SDS011;57135;51.992;4.476;2023-06-22T14:04:06;27.67;;;27.58;;
69837;SDS011;57135;51.992;4.476;2023-06-22T14:06:31;26.57;;;26.53;;
69837;SDS011;57135;51.992;4.476;2023-06-22T14:08:57;27.85;;;27.85;;
69837;SDS011;57135;51.992;4.476;2023-06-22T14:11:22;28.94;;;28.93;;
69837;SDS011;57135;51.992;4.476;2023-06-22T14:13:48;28.69;;;28.66;;
69837;SDS011;57135;51.992;4.476;2023-06-22T14:16:13;27.42;;;27.40;;
69837;SDS011;57135;51.992;4.476;2023-06-22T14:18:39;27.49;;;27.49;;
69837;SDS011;57135;51.992;4.476;2023-06-22T14:21:04;27.78;;;27.78;;
69837;SDS011;57135;51.992;4.476;2023-06-22T14:23:30;27.35;;;27.35;;
69837;SDS011;57135;51.992;4.476;2023-06-22T14:25:55;27.90;;;27.84;;
69837;SDS011;57135;51.992;4.476;2023-06-22T14:28:21;27.67;;;27.66;;
69837;SDS011;57135;51.992;4.476;2023-06-22T14:30:46;28.32;;;28.32;;